createdAt,value
2023-03-20T00:01:13.779Z,7.18
2023-03-20T00:03:43.527Z,6.95
2023-03-20T00:06:16.931Z,6.93
2023-03-20T00:08:46.901Z,6.95
2023-03-20T00:11:29.168Z,6.75
2023-03-20T00:13:59.065Z,6.65
2023-03-20T00:16:32.812Z,6.65
2023-03-20T00:19:03.304Z,6.50
2023-03-20T00:21:32.094Z,5.57
2023-03-20T00:24:00.760Z,6.10
2023-03-20T00:26:34.819Z,6.50
2023-03-20T00:29:04.221Z,5.53
2023-03-20T00:31:34.507Z,5.88
2023-03-20T00:34:06.621Z,6.18
2023-03-20T00:36:35.132Z,5.75
2023-03-20T00:39:04.680Z,5.85
2023-03-20T00:41:36.954Z,5.88
2023-03-20T00:44:13.956Z,5.55
2023-03-20T00:46:42.645Z,5.63
2023-03-20T00:49:13.384Z,6.43
2023-03-20T00:51:42.490Z,5.82
2023-03-20T00:54:14.513Z,6.20
2023-03-20T00:56:45.836Z,6.40
2023-03-20T00:59:19.305Z,7.10
2023-03-20T01:01:47.671Z,6.38
2023-03-20T01:04:21.302Z,7.00
2023-03-20T01:06:49.680Z,6.47
2023-03-20T01:09:18.216Z,6.00
2023-03-20T01:11:47.344Z,6.30
2023-03-20T01:14:18.066Z,6.40
2023-03-20T01:16:46.497Z,6.88
2023-03-20T01:19:20.544Z,6.10
2023-03-20T01:21:50.755Z,6.30
2023-03-20T01:24:19.132Z,5.80
2023-03-20T01:26:47.792Z,6.15
2023-03-20T01:29:19.826Z,5.55
2023-03-20T01:31:48.469Z,5.47
2023-03-20T01:34:17.914Z,5.95
2023-03-20T01:36:50.228Z,5.75
2023-03-20T01:39:19.292Z,5.53
2023-03-20T01:41:49.073Z,5.82
2023-03-20T01:44:22.376Z,5.72
2023-03-20T01:46:55.593Z,6.03
2023-03-20T01:50:01.260Z,6.00
2023-03-20T01:52:31.227Z,6.28
2023-03-20T01:54:59.626Z,6.43
2023-03-20T01:57:28.357Z,6.15
2023-03-20T02:00:01.687Z,5.78
2023-03-20T02:02:33.360Z,5.18
2023-03-20T02:05:06.057Z,6.15
2023-03-20T02:07:36.720Z,5.57
2023-03-20T02:10:10.280Z,5.13
2023-03-20T02:13:02.987Z,6.15
2023-03-20T02:15:38.299Z,6.15
2023-03-20T02:18:13.067Z,5.85
2023-03-20T02:20:57.690Z,5.53
2023-03-20T02:23:51.089Z,5.80
2023-03-20T02:26:37.918Z,6.90
2023-03-20T02:29:39.032Z,6.22
2023-03-20T02:32:51.312Z,6.03
2023-03-20T02:35:45.897Z,6.65
2023-03-20T02:38:35.662Z,5.88
2023-03-20T02:41:14.740Z,6.53
2023-03-20T02:43:50.147Z,6.03
2023-03-20T02:46:28.060Z,6.18
2023-03-20T02:49:02.568Z,6.43
2023-03-20T02:51:37.446Z,5.32
2023-03-20T02:54:14.263Z,5.07
2023-03-20T02:56:53.178Z,5.45
2023-03-20T02:59:28.217Z,5.97
2023-03-20T03:02:03.004Z,5.13
2023-03-20T03:04:35.927Z,5.43
2023-03-20T03:07:07.021Z,5.32
2023-03-20T03:09:41.451Z,5.57
2023-03-20T03:12:13.837Z,6.00
2023-03-20T03:14:46.295Z,5.53
2023-03-20T03:17:19.666Z,5.70
2023-03-20T03:19:51.706Z,6.65
2023-03-20T03:22:21.427Z,6.40
2023-03-20T03:24:52.732Z,6.03
2023-03-20T03:27:24.829Z,5.97
2023-03-20T03:29:57.437Z,6.75
2023-03-20T03:32:30.054Z,6.57
2023-03-20T03:34:58.916Z,6.80
2023-03-20T03:37:42.598Z,6.75
2023-03-20T03:40:20.822Z,7.05
2023-03-20T03:42:54.952Z,7.63
2023-03-20T03:45:30.577Z,7.60
2023-03-20T03:48:04.337Z,7.38
2023-03-20T03:50:37.260Z,7.75
2023-03-20T03:53:11.543Z,8.15
2023-03-20T03:55:43.980Z,7.60
2023-03-20T03:58:17.417Z,7.55
2023-03-20T04:00:48.139Z,7.65
2023-03-20T04:03:17.187Z,7.53
2023-03-20T04:05:48.348Z,8.40
2023-03-20T04:08:17.427Z,7.90
2023-03-20T04:10:47.402Z,7.90
2023-03-20T04:13:16.512Z,7.40
2023-03-20T04:15:46.266Z,6.80
2023-03-20T04:18:17.708Z,8.20
2023-03-20T04:20:48.469Z,8.02
2023-03-20T04:23:18.126Z,8.10
2023-03-20T04:25:47.965Z,8.80
2023-03-20T04:28:19.580Z,8.35
2023-03-20T04:31:02.930Z,8.70
2023-03-20T04:33:54.320Z,8.23
2023-03-20T04:36:37.943Z,8.18
2023-03-20T04:39:08.710Z,9.20
2023-03-20T04:41:38.416Z,9.02
2023-03-20T04:44:06.776Z,9.55
2023-03-20T04:46:36.302Z,9.88
2023-03-20T04:49:09.118Z,9.77
2023-03-20T04:51:37.469Z,9.20
2023-03-20T04:54:05.710Z,9.23
2023-03-20T04:56:34.079Z,9.35
2023-03-20T04:59:21.483Z,9.15
2023-03-20T05:01:49.809Z,9.70
2023-03-20T05:04:18.226Z,8.75
2023-03-20T05:06:49.223Z,9.05
2023-03-20T05:09:20.174Z,8.38
2023-03-20T05:11:49.787Z,9.40
2023-03-20T05:14:38.120Z,9.05
2023-03-20T05:17:23.117Z,9.50
2023-03-20T05:20:13.469Z,9.48
2023-03-20T05:23:06.297Z,9.70
2023-03-20T05:25:55.000Z,9.10
2023-03-20T05:28:26.190Z,8.93
2023-03-20T05:31:16.371Z,9.30
2023-03-20T05:34:05.407Z,9.18
2023-03-20T05:36:55.877Z,9.00
2023-03-20T05:39:31.165Z,9.50
2023-03-20T05:42:19.616Z,9.82
2023-03-20T05:45:09.068Z,8.80
2023-03-20T05:47:56.482Z,9.77
2023-03-20T05:50:27.859Z,9.13
2023-03-20T05:53:34.336Z,9.40
2023-03-20T05:56:41.108Z,9.85
2023-03-20T05:59:29.746Z,10.10
2023-03-20T06:02:17.448Z,9.48
2023-03-20T06:04:55.789Z,10.35
2023-03-20T06:07:30.411Z,9.50
2023-03-20T06:10:06.670Z,9.95
2023-03-20T06:12:35.106Z,9.75
2023-03-20T06:15:03.534Z,9.63
2023-03-20T06:17:34.938Z,9.45
2023-03-20T06:20:07.385Z,10.20
2023-03-20T06:22:35.735Z,9.85
2023-03-20T06:25:04.099Z,9.68
2023-03-20T06:27:37.265Z,9.32
2023-03-20T06:30:06.186Z,9.32
2023-03-20T06:32:36.812Z,9.23
2023-03-20T06:35:10.248Z,8.02
2023-03-20T06:37:40.451Z,8.45
2023-03-20T06:40:14.523Z,8.68
2023-03-20T06:42:43.551Z,8.30
2023-03-20T06:45:13.379Z,8.38
2023-03-20T06:47:50.918Z,7.53
2023-03-20T06:50:20.853Z,8.38
2023-03-20T06:52:49.387Z,7.47
2023-03-20T06:55:40.843Z,7.47
2023-03-20T06:58:09.259Z,7.80
2023-03-20T07:00:38.640Z,7.10
2023-03-20T07:03:08.883Z,7.45
2023-03-20T07:05:40.436Z,7.18
2023-03-20T07:08:10.893Z,7.72
2023-03-20T07:10:39.676Z,7.25
2023-03-20T07:13:08.076Z,7.10
2023-03-20T07:15:38.750Z,7.47
2023-03-20T07:18:09.020Z,6.80
2023-03-20T07:20:39.293Z,7.32
2023-03-20T07:23:07.516Z,7.25
2023-03-20T07:25:42.810Z,7.03
2023-03-20T07:28:16.661Z,7.60
2023-03-20T07:30:51.311Z,7.25
2023-03-20T07:33:21.144Z,7.28
2023-03-20T07:35:55.305Z,7.35
2023-03-20T07:38:25.632Z,7.43
2023-03-20T07:41:06.751Z,7.78
2023-03-20T07:43:37.387Z,7.45
2023-03-20T07:46:44.598Z,7.75
2023-03-20T07:49:13.066Z,7.55
2023-03-20T07:51:42.692Z,7.95
2023-03-20T07:54:11.055Z,8.23
2023-03-20T07:56:39.455Z,8.45
2023-03-20T07:59:07.878Z,8.32
2023-03-20T08:01:36.171Z,8.32
2023-03-20T08:04:04.597Z,7.93
2023-03-20T08:06:33.279Z,8.32
2023-03-20T08:09:03.271Z,8.15
2023-03-20T08:11:34.207Z,7.93
2023-03-20T08:14:02.735Z,8.20
2023-03-20T08:16:31.043Z,7.93
2023-03-20T08:19:01.474Z,8.93
2023-03-20T08:21:29.978Z,7.55
2023-03-20T08:23:58.742Z,7.93
2023-03-20T08:26:28.443Z,7.85
2023-03-20T08:28:56.756Z,7.93
2023-03-20T08:31:25.065Z,7.38
2023-03-20T08:33:53.456Z,8.48
2023-03-20T08:36:21.813Z,7.85
2023-03-20T08:38:51.033Z,8.07
2023-03-20T08:41:19.961Z,7.63
2023-03-20T08:43:49.684Z,7.70
2023-03-20T08:46:18.033Z,8.45
2023-03-20T08:48:46.327Z,8.50
2023-03-20T08:51:14.817Z,8.27
2023-03-20T08:53:43.076Z,8.00
2023-03-20T08:56:12.190Z,8.43
2023-03-20T08:58:40.656Z,8.15
2023-03-20T09:01:11.621Z,8.38
2023-03-20T09:03:40.012Z,7.97
2023-03-20T09:06:09.710Z,8.23
2023-03-20T09:08:37.768Z,8.63
2023-03-20T09:11:08.137Z,8.50
2023-03-20T09:13:36.514Z,8.00
2023-03-20T09:16:04.898Z,7.32
2023-03-20T09:18:34.360Z,8.63
2023-03-20T09:21:02.406Z,8.35
2023-03-20T09:23:30.434Z,8.23
2023-03-20T09:25:58.576Z,8.25
2023-03-20T09:28:27.173Z,8.65
2023-03-20T09:30:57.598Z,7.68
2023-03-20T09:33:26.267Z,7.95
2023-03-20T09:35:55.673Z,7.75
2023-03-20T09:38:24.422Z,8.63
2023-03-20T09:40:55.205Z,8.35
2023-03-20T09:43:47.767Z,8.02
2023-03-20T09:46:27.249Z,6.88
2023-03-20T09:49:03.219Z,8.15
2023-03-20T09:51:39.381Z,7.35
2023-03-20T09:54:12.686Z,7.75
2023-03-20T09:56:41.162Z,6.22
2023-03-20T09:59:09.250Z,6.78
2023-03-20T10:01:44.923Z,6.85
2023-03-20T10:04:14.440Z,6.80
2023-03-20T10:06:43.925Z,7.20
2023-03-20T10:09:17.717Z,6.25
2023-03-20T10:12:04.076Z,6.55
2023-03-20T10:14:38.456Z,7.03
2023-03-20T10:17:20.779Z,6.25
2023-03-20T10:19:53.465Z,6.65
2023-03-20T10:22:29.261Z,6.28
2023-03-20T10:25:02.804Z,6.85
2023-03-20T10:27:36.098Z,6.90
2023-03-20T10:30:24.556Z,5.97
2023-03-20T10:33:01.305Z,5.28
2023-03-20T10:35:34.337Z,6.30
2023-03-20T10:38:14.218Z,6.50
2023-03-20T10:40:43.460Z,5.85
2023-03-20T10:43:17.847Z,6.10
2023-03-20T10:45:49.688Z,5.60
2023-03-20T10:48:24.850Z,6.65
2023-03-20T10:50:56.181Z,6.30
2023-03-20T10:53:35.744Z,6.15
2023-03-20T10:56:08.082Z,6.15
2023-03-20T10:58:39.642Z,6.47
2023-03-20T11:01:07.884Z,7.07
2023-03-20T11:03:39.821Z,6.88
2023-03-20T11:06:14.640Z,6.60
2023-03-20T11:08:49.319Z,6.90
2023-03-20T11:11:23.688Z,7.28
2023-03-20T11:13:51.897Z,6.70
2023-03-20T11:16:23.133Z,6.28
2023-03-20T11:18:52.559Z,6.63
2023-03-20T11:21:24.181Z,6.65
2023-03-20T11:23:54.239Z,5.82
2023-03-20T11:26:35.755Z,7.05
2023-03-20T11:29:06.316Z,6.78
2023-03-20T11:31:38.903Z,6.88
2023-03-20T11:34:26.398Z,7.13
2023-03-20T11:37:09.633Z,7.68
2023-03-20T11:39:42.188Z,7.32
2023-03-20T11:42:24.696Z,6.93
2023-03-20T11:44:59.677Z,7.55
2023-03-20T11:47:29.672Z,7.00
2023-03-20T11:49:59.566Z,6.95
2023-03-20T11:52:31.059Z,7.13
2023-03-20T11:55:03.252Z,7.25
2023-03-20T11:57:35.280Z,7.35
2023-03-20T12:00:07.324Z,7.20
2023-03-20T12:02:37.358Z,7.88
2023-03-20T12:05:20.742Z,7.30
2023-03-20T12:07:52.158Z,7.07
2023-03-20T12:10:22.974Z,7.68
2023-03-20T12:12:55.629Z,8.07
2023-03-20T12:15:27.116Z,8.45
2023-03-20T12:17:58.447Z,8.00
2023-03-20T12:20:36.869Z,8.05
2023-03-20T12:23:14.575Z,8.55
2023-03-20T12:25:51.561Z,9.05
2023-03-20T12:28:26.002Z,9.85
2023-03-20T12:31:07.292Z,9.90
2023-03-20T12:33:50.518Z,9.48
2023-03-20T12:36:25.478Z,9.50
2023-03-20T12:38:53.605Z,8.52
2023-03-20T12:41:27.697Z,8.57
2023-03-20T12:44:21.340Z,8.90
2023-03-20T12:47:10.954Z,9.30
2023-03-20T12:49:50.139Z,8.52
2023-03-20T12:52:27.124Z,8.32
2023-03-20T12:55:25.837Z,8.07
2023-03-20T12:58:07.266Z,7.82
2023-03-20T13:00:39.025Z,8.05
2023-03-20T13:03:27.668Z,7.65
2023-03-20T13:06:05.963Z,7.60
2023-03-20T13:09:00.357Z,7.50
2023-03-20T13:11:34.784Z,7.50
2023-03-20T13:14:13.270Z,7.95
2023-03-20T13:16:50.722Z,8.27
2023-03-20T13:19:27.296Z,8.55
2023-03-20T13:22:00.183Z,8.80
2023-03-20T13:24:41.403Z,8.27
2023-03-20T13:27:21.313Z,7.15
2023-03-20T13:29:56.129Z,5.50
2023-03-20T13:32:34.059Z,5.57
2023-03-20T13:35:18.629Z,6.05
2023-03-20T13:37:50.545Z,6.55
2023-03-20T13:40:23.126Z,6.28
2023-03-20T13:42:55.778Z,6.35
2023-03-20T13:45:32.379Z,6.55
2023-03-20T13:48:05.708Z,6.90
2023-03-20T13:50:43.137Z,6.68
2023-03-20T13:53:22.530Z,7.15
2023-03-20T13:55:56.254Z,6.85
2023-03-20T13:58:40.426Z,7.00
2023-03-20T14:01:15.961Z,7.05
2023-03-20T14:03:47.127Z,6.38
2023-03-20T14:06:42.119Z,7.10
2023-03-20T14:09:27.628Z,7.32
2023-03-20T14:11:57.835Z,6.75
2023-03-20T14:14:29.267Z,7.53
2023-03-20T14:17:18.019Z,7.75
2023-03-20T14:19:47.170Z,7.60
2023-03-20T14:22:21.294Z,7.55
2023-03-20T14:24:56.074Z,7.22
2023-03-20T14:27:42.956Z,8.40
2023-03-20T14:30:43.562Z,9.55
2023-03-20T14:33:31.605Z,9.40
2023-03-20T14:36:20.532Z,9.55
2023-03-20T14:38:55.217Z,9.30
2023-03-20T14:41:31.592Z,9.15
2023-03-20T14:44:09.777Z,8.25
2023-03-20T14:46:49.368Z,8.00
2023-03-20T14:49:27.690Z,8.93
2023-03-20T14:52:03.497Z,8.75
2023-03-20T14:54:32.299Z,8.35
2023-03-20T14:57:11.141Z,6.90
2023-03-20T14:59:39.594Z,6.40
2023-03-20T15:02:07.673Z,7.18
2023-03-20T15:04:40.247Z,6.00
2023-03-20T15:07:15.748Z,5.93
2023-03-20T15:09:46.549Z,5.68
2023-03-20T15:12:17.863Z,5.47
2023-03-20T15:14:52.328Z,6.05
2023-03-20T15:17:23.540Z,5.65
2023-03-20T15:20:01.600Z,5.75
2023-03-20T15:22:29.665Z,5.50
2023-03-20T15:24:58.822Z,5.68
2023-03-20T15:27:30.706Z,5.38
2023-03-20T15:30:01.514Z,5.85
2023-03-20T15:32:30.404Z,6.07
2023-03-20T15:34:59.886Z,6.00
2023-03-20T15:37:28.447Z,6.10
2023-03-20T15:39:59.230Z,5.78
2023-03-20T15:42:28.521Z,5.97
2023-03-20T15:44:57.881Z,5.18
2023-03-20T15:47:26.872Z,5.00
2023-03-20T15:50:02.661Z,5.03
2023-03-20T15:52:33.829Z,5.47
2023-03-20T15:55:05.499Z,5.35
2023-03-20T15:57:36.149Z,6.07
2023-03-20T16:00:07.445Z,6.38
2023-03-20T16:02:37.187Z,6.72
2023-03-20T16:05:12.828Z,6.30
2023-03-20T16:07:40.877Z,5.60
2023-03-20T16:10:19.421Z,6.38
2023-03-20T16:12:49.743Z,5.85
2023-03-20T16:15:19.543Z,5.50
2023-03-20T16:17:48.838Z,6.20
2023-03-20T16:20:19.562Z,6.63
2023-03-20T16:22:48.157Z,6.30
2023-03-20T16:25:19.423Z,6.43
2023-03-20T16:27:51.595Z,7.68
2023-03-20T16:30:23.504Z,6.63
2023-03-20T16:32:57.402Z,6.47
2023-03-20T16:35:31.045Z,7.32
2023-03-20T16:38:01.316Z,6.80
2023-03-20T16:40:38.315Z,7.43
2023-03-20T16:43:08.794Z,7.43
2023-03-20T16:45:38.349Z,7.70
2023-03-20T16:48:39.927Z,7.32
2023-03-20T16:51:17.671Z,7.63
2023-03-20T16:53:48.726Z,7.07
2023-03-20T16:56:23.081Z,6.70
2023-03-20T16:58:51.409Z,6.90
2023-03-20T17:01:22.015Z,7.15
2023-03-20T17:03:53.846Z,7.68
2023-03-20T17:06:37.534Z,8.00
2023-03-20T17:09:24.905Z,8.70
2023-03-20T17:12:01.191Z,7.80
2023-03-20T17:14:29.323Z,9.05
2023-03-20T17:16:57.990Z,8.73
2023-03-20T17:19:26.625Z,9.77
2023-03-20T17:21:57.705Z,9.82
2023-03-20T17:24:25.892Z,9.40
2023-03-20T17:26:56.230Z,9.38
2023-03-20T17:29:24.340Z,10.13
2023-03-20T17:31:53.038Z,11.13
2023-03-20T17:34:21.303Z,11.02
2023-03-20T17:36:49.626Z,10.93
2023-03-20T17:39:21.588Z,10.90
2023-03-20T17:41:49.763Z,10.95
2023-03-20T17:44:17.740Z,11.05
2023-03-20T17:46:57.810Z,12.05
2023-03-20T17:49:28.039Z,12.35
2023-03-20T17:51:56.760Z,12.38
2023-03-20T17:54:26.324Z,12.25
2023-03-20T18:01:01.632Z,12.65
2023-03-20T18:03:29.918Z,12.45
2023-03-20T18:05:58.308Z,13.60
2023-03-20T18:08:27.440Z,12.48
2023-03-20T18:10:57.024Z,13.23
2023-03-20T18:13:27.120Z,13.57
2023-03-20T18:15:57.922Z,13.73
2023-03-20T18:18:26.477Z,14.45
2023-03-20T18:20:57.283Z,13.55
2023-03-20T18:23:25.338Z,13.68
2023-03-20T18:25:53.424Z,14.02
2023-03-20T18:28:23.475Z,14.32
2023-03-20T18:30:52.026Z,14.57
2023-03-20T18:33:25.201Z,15.38
2023-03-20T18:35:53.472Z,14.32
2023-03-20T18:38:24.491Z,14.02
2023-03-20T18:40:52.807Z,15.90
2023-03-20T18:43:22.213Z,15.15
2023-03-20T18:45:50.251Z,14.98
2023-03-20T18:48:18.496Z,14.88
2023-03-20T18:50:50.934Z,15.52
2023-03-20T18:53:19.612Z,14.18
2023-03-20T18:55:47.626Z,15.05
2023-03-20T18:58:22.868Z,15.75
2023-03-20T19:00:51.726Z,16.08
2023-03-20T19:03:23.696Z,15.73
2023-03-20T19:05:52.493Z,16.20
2023-03-20T19:08:20.818Z,16.35
2023-03-20T19:10:49.559Z,16.58
2023-03-20T19:13:19.663Z,16.95
2023-03-20T19:15:49.483Z,17.52
2023-03-20T19:18:19.614Z,18.55
2023-03-20T19:20:48.837Z,18.38
2023-03-20T19:23:19.634Z,19.92
2023-03-20T19:25:49.216Z,18.50
2023-03-20T19:28:21.821Z,19.60
2023-03-20T19:30:53.984Z,19.95
2023-03-20T19:33:22.143Z,19.02
2023-03-20T19:36:06.081Z,19.92
2023-03-20T19:38:34.888Z,21.23
2023-03-20T19:41:03.886Z,21.15
2023-03-20T19:43:32.553Z,20.60
2023-03-20T19:46:02.031Z,22.23
2023-03-20T19:48:49.247Z,21.10
2023-03-20T19:51:20.874Z,19.98
2023-03-20T19:53:49.501Z,21.45
2023-03-20T19:56:19.290Z,21.25
2023-03-20T19:58:47.816Z,21.02
2023-03-20T20:01:19.905Z,21.45
2023-03-20T20:03:49.623Z,21.20
2023-03-20T20:06:21.205Z,21.45
2023-03-20T20:08:49.974Z,21.10
2023-03-20T20:11:18.445Z,21.35
2023-03-20T20:14:07.255Z,20.45
2023-03-20T20:16:36.638Z,21.52
2023-03-20T20:19:05.397Z,21.25
2023-03-20T20:24:22.346Z,20.65
2023-03-20T20:26:55.220Z,20.42
2023-03-20T20:29:31.753Z,21.65
2023-03-20T20:32:02.012Z,21.88
2023-03-20T20:40:08.783Z,19.88
2023-03-20T20:42:38.134Z,21.02
2023-03-20T20:45:08.785Z,21.40
2023-03-20T20:47:38.564Z,20.50
2023-03-20T20:50:08.796Z,20.83
2023-03-20T20:52:39.170Z,20.48
2023-03-20T20:55:22.200Z,22.38
2023-03-20T20:57:51.939Z,20.98
2023-03-20T21:00:27.552Z,21.05
2023-03-20T21:03:01.085Z,20.70
2023-03-20T21:05:31.084Z,20.58
2023-03-20T21:07:59.145Z,21.08
2023-03-20T21:10:27.488Z,21.13
2023-03-20T21:12:59.557Z,20.90
2023-03-20T21:15:28.236Z,20.05
2023-03-20T21:18:03.402Z,19.58
2023-03-20T21:20:33.945Z,19.52
2023-03-20T21:23:02.340Z,20.67
2023-03-20T21:25:47.781Z,19.17
2023-03-20T21:28:16.550Z,17.88
2023-03-20T21:31:12.190Z,18.02
2023-03-20T21:33:33.578Z,16.90
2023-03-20T21:36:04.131Z,16.40
2023-03-20T21:39:06.807Z,15.63
2023-03-20T21:41:20.727Z,14.13
2023-03-20T21:43:49.753Z,10.70
2023-03-20T21:58:21.289Z,2.20
2023-03-20T22:03:22.384Z,1.52
2023-03-20T22:15:09.240Z,1.52
2023-03-20T22:23:38.507Z,1.27
2023-03-20T22:26:39.173Z,1.75
2023-03-20T22:37:45.925Z,1.55
2023-03-20T22:42:53.282Z,1.50
2023-03-20T22:47:53.602Z,1.88
2023-03-20T22:50:21.683Z,2.15
2023-03-20T22:52:52.554Z,1.63
2023-03-20T22:55:21.055Z,2.13
2023-03-20T22:58:05.935Z,1.30
2023-03-20T23:00:35.450Z,1.85
2023-03-20T23:03:17.146Z,2.78
2023-03-20T23:05:48.293Z,1.55
2023-03-20T23:08:16.462Z,0.85
2023-03-20T23:10:45.976Z,1.77
2023-03-20T23:13:16.429Z,2.08
2023-03-20T23:15:46.568Z,1.63
2023-03-20T23:18:14.835Z,1.38
2023-03-20T23:20:43.181Z,1.40
2023-03-20T23:23:11.478Z,1.98
2023-03-20T23:25:40.609Z,2.38
2023-03-20T23:28:10.902Z,1.60
2023-03-20T23:30:56.743Z,2.40
2023-03-20T23:33:28.332Z,2.08
2023-03-20T23:36:13.999Z,1.85
2023-03-20T23:38:45.969Z,1.95
2023-03-20T23:41:14.457Z,2.75
2023-03-20T23:43:42.712Z,2.28
2023-03-20T23:46:12.536Z,2.38
2023-03-20T23:48:40.730Z,2.08
2023-03-20T23:51:09.120Z,1.88
2023-03-20T23:53:37.176Z,2.53
2023-03-20T23:56:05.601Z,2.47
2023-03-20T23:58:34.709Z,3.53
